createdAt,value
2023-03-16T00:01:40.543Z,20.30
2023-03-16T00:04:13.553Z,20.30
2023-03-16T00:06:46.745Z,20.30
2023-03-16T00:09:19.652Z,20.30
2023-03-16T00:11:52.765Z,20.29
2023-03-16T00:14:25.695Z,20.28
2023-03-16T00:16:58.684Z,20.27
2023-03-16T00:19:31.711Z,20.26
2023-03-16T00:22:04.691Z,20.25
2023-03-16T00:24:37.755Z,20.25
2023-03-16T00:27:10.681Z,20.24
2023-03-16T00:29:43.918Z,20.23
2023-03-16T00:32:17.639Z,20.23
2023-03-16T00:34:50.799Z,20.22
2023-03-16T00:37:24.108Z,20.21
2023-03-16T00:39:56.685Z,20.20
2023-03-16T00:42:29.790Z,20.19
2023-03-16T00:45:02.702Z,20.18
2023-03-16T00:47:35.596Z,20.18
2023-03-16T00:50:08.725Z,20.17
2023-03-16T00:52:41.924Z,20.16
2023-03-16T00:55:15.952Z,20.15
2023-03-16T00:57:49.595Z,20.15
2023-03-16T01:00:22.739Z,20.14
2023-03-16T01:02:55.882Z,20.13
2023-03-16T01:05:28.977Z,20.12
2023-03-16T01:08:02.847Z,20.11
2023-03-16T01:10:35.626Z,20.11
2023-03-16T01:13:08.753Z,20.10
2023-03-16T01:15:41.579Z,20.10
2023-03-16T01:18:14.806Z,20.09
2023-03-16T01:20:50.790Z,20.09
2023-03-16T01:23:23.878Z,20.09
2023-03-16T01:25:57.038Z,20.08
2023-03-16T01:28:30.643Z,20.08
2023-03-16T01:31:03.864Z,20.08
2023-03-16T01:33:36.936Z,20.07
2023-03-16T01:36:09.796Z,20.07
2023-03-16T01:38:43.236Z,20.07
2023-03-16T01:41:15.490Z,20.07
2023-03-16T01:43:48.617Z,20.07
2023-03-16T01:46:25.093Z,20.06
2023-03-16T01:48:57.506Z,20.05
2023-03-16T01:51:31.058Z,20.05
2023-03-16T01:54:04.850Z,20.04
2023-03-16T01:56:37.666Z,20.03
2023-03-16T01:59:10.847Z,20.03
2023-03-16T02:01:43.730Z,20.02
2023-03-16T02:04:16.608Z,20.01
2023-03-16T02:06:49.654Z,20.00
2023-03-16T02:09:22.849Z,20.00
2023-03-16T02:11:58.857Z,19.99
2023-03-16T02:14:31.724Z,19.99
2023-03-16T02:19:54.705Z,19.98
2023-03-16T02:22:27.667Z,19.97
2023-03-16T02:25:00.626Z,19.96
2023-03-16T02:27:34.074Z,19.96
2023-03-16T02:30:07.604Z,19.95
2023-03-16T02:32:40.819Z,19.95
2023-03-16T02:35:14.014Z,19.94
2023-03-16T02:37:46.699Z,19.94
2023-03-16T02:40:19.622Z,19.93
2023-03-16T02:42:52.899Z,19.93
2023-03-16T02:45:25.957Z,19.92
2023-03-16T02:47:59.163Z,19.92
2023-03-16T02:50:32.996Z,19.91
2023-03-16T02:53:05.876Z,19.91
2023-03-16T02:55:38.962Z,19.90
2023-03-16T02:58:11.930Z,19.89
2023-03-16T03:00:44.742Z,19.89
2023-03-16T03:03:17.722Z,19.88
2023-03-16T03:05:51.089Z,19.87
2023-03-16T03:08:25.071Z,19.87
2023-03-16T03:10:57.970Z,19.86
2023-03-16T03:13:30.774Z,19.86
2023-03-16T03:16:03.772Z,19.85
2023-03-16T03:18:36.756Z,19.85
2023-03-16T03:21:09.664Z,19.84
2023-03-16T03:23:43.015Z,19.84
2023-03-16T03:26:16.171Z,19.83
2023-03-16T03:28:50.076Z,19.82
2023-03-16T03:31:22.771Z,19.82
2023-03-16T03:33:55.999Z,19.82
2023-03-16T03:36:29.004Z,19.81
2023-03-16T03:39:01.722Z,19.80
2023-03-16T03:41:35.025Z,19.80
2023-03-16T03:44:08.011Z,19.79
2023-03-16T03:46:43.880Z,19.79
2023-03-16T03:49:16.818Z,19.78
2023-03-16T03:51:49.821Z,19.78
2023-03-16T03:54:22.883Z,19.77
2023-03-16T03:56:56.072Z,19.77
2023-03-16T03:59:28.803Z,19.76
2023-03-16T04:02:02.159Z,19.76
2023-03-16T04:04:35.034Z,19.75
2023-03-16T04:07:07.782Z,19.75
2023-03-16T04:09:41.099Z,19.75
2023-03-16T04:12:13.771Z,19.74
2023-03-16T04:14:49.835Z,19.74
2023-03-16T04:17:22.824Z,19.73
2023-03-16T04:19:55.987Z,19.72
2023-03-16T04:22:29.137Z,19.71
2023-03-16T04:25:02.048Z,19.71
2023-03-16T04:27:34.896Z,19.70
2023-03-16T04:30:08.028Z,19.70
2023-03-16T04:32:41.228Z,19.69
2023-03-16T04:35:14.104Z,19.69
2023-03-16T04:37:47.123Z,19.69
2023-03-16T04:40:19.789Z,19.68
2023-03-16T04:42:53.135Z,19.68
2023-03-16T04:45:26.242Z,19.67
2023-03-16T04:48:00.088Z,19.67
2023-03-16T04:50:33.026Z,19.67
2023-03-16T04:53:05.806Z,19.66
2023-03-16T04:55:38.917Z,19.66
2023-03-16T04:58:11.992Z,19.65
2023-03-16T05:00:45.335Z,19.65
2023-03-16T05:03:18.834Z,19.64
2023-03-16T05:05:52.131Z,19.64
2023-03-16T05:08:24.977Z,19.63
2023-03-16T05:10:57.948Z,19.63
2023-03-16T05:13:31.001Z,19.63
2023-03-16T05:16:03.901Z,19.62
2023-03-16T05:18:36.858Z,19.62
2023-03-16T05:21:09.842Z,19.61
2023-03-16T05:23:56.770Z,19.61
2023-03-16T05:26:30.003Z,19.61
2023-03-16T05:29:02.899Z,19.60
2023-03-16T05:31:36.013Z,19.60
2023-03-16T05:34:08.858Z,19.59
2023-03-16T05:36:42.053Z,19.59
2023-03-16T05:39:14.955Z,19.58
2023-03-16T05:41:48.208Z,19.57
2023-03-16T05:44:20.926Z,19.57
2023-03-16T05:46:54.055Z,19.56
2023-03-16T05:49:27.003Z,19.55
2023-03-16T05:52:00.146Z,19.55
2023-03-16T05:54:33.238Z,19.55
2023-03-16T05:57:09.862Z,19.55
2023-03-16T05:59:43.052Z,19.54
2023-03-16T06:02:16.219Z,19.54
2023-03-16T06:04:48.987Z,19.53
2023-03-16T06:07:22.221Z,19.54
2023-03-16T06:09:54.995Z,19.54
2023-03-16T06:12:28.064Z,19.54
2023-03-16T06:15:01.040Z,19.55
2023-03-16T06:17:34.090Z,19.56
2023-03-16T06:20:06.947Z,19.57
2023-03-16T06:22:40.103Z,19.59
2023-03-16T06:25:13.062Z,19.61
2023-03-16T06:27:46.098Z,19.63
2023-03-16T06:30:19.027Z,19.65
2023-03-16T06:32:52.374Z,19.68
2023-03-16T06:35:25.285Z,19.70
2023-03-16T06:37:58.144Z,19.72
2023-03-16T06:40:31.295Z,19.75
2023-03-16T06:43:04.270Z,19.77
2023-03-16T06:45:37.381Z,19.79
2023-03-16T06:48:10.025Z,19.82
2023-03-16T06:50:43.271Z,19.83
2023-03-16T06:53:16.065Z,19.85
2023-03-16T06:55:49.106Z,19.86
2023-03-16T06:58:36.097Z,19.87
2023-03-16T07:01:09.143Z,19.88
2023-03-16T07:03:42.100Z,19.88
2023-03-16T07:06:15.588Z,19.88
2023-03-16T07:08:49.420Z,19.88
2023-03-16T07:11:22.260Z,19.88
2023-03-16T07:13:55.330Z,19.88
2023-03-16T07:16:28.513Z,19.89
2023-03-16T07:19:01.655Z,19.89
2023-03-16T07:21:35.313Z,19.90
2023-03-16T07:24:08.330Z,19.90
2023-03-16T07:26:41.378Z,19.91
2023-03-16T07:29:14.336Z,19.92
2023-03-16T07:31:47.471Z,19.92
2023-03-16T07:34:20.303Z,19.93
2023-03-16T07:36:53.405Z,19.94
2023-03-16T07:39:26.337Z,19.95
2023-03-16T07:41:59.569Z,19.96
2023-03-16T07:44:33.370Z,19.97
2023-03-16T07:47:06.418Z,19.98
2023-03-16T07:49:39.365Z,19.99
2023-03-16T07:52:14.458Z,20.00
2023-03-16T07:54:47.380Z,20.01
2023-03-16T07:57:20.373Z,20.02
2023-03-16T07:59:53.046Z,20.03
2023-03-16T08:02:26.212Z,20.04
2023-03-16T08:04:59.454Z,20.05
2023-03-16T08:07:32.477Z,20.07
2023-03-16T08:10:05.405Z,20.08
2023-03-16T08:12:38.449Z,20.09
2023-03-16T08:15:11.377Z,20.10
2023-03-16T08:17:44.688Z,20.11
2023-03-16T08:20:18.400Z,20.12
2023-03-16T08:22:51.453Z,20.13
2023-03-16T08:25:24.398Z,20.14
2023-03-16T08:27:57.485Z,20.15
2023-03-16T08:30:30.926Z,20.16
2023-03-16T08:33:03.524Z,20.17
2023-03-16T08:35:36.683Z,20.18
2023-03-16T08:38:10.363Z,20.18
2023-03-16T08:40:43.564Z,20.19
2023-03-16T08:43:16.427Z,20.20
2023-03-16T08:45:49.435Z,20.21
2023-03-16T08:48:22.455Z,20.22
2023-03-16T08:50:55.482Z,20.23
2023-03-16T08:53:28.487Z,20.24
2023-03-16T08:56:01.543Z,20.25
2023-03-16T08:58:34.539Z,20.26
2023-03-16T09:01:07.430Z,20.27
2023-03-16T09:03:40.574Z,20.28
2023-03-16T09:06:13.632Z,20.28
2023-03-16T09:08:47.472Z,20.29
2023-03-16T09:11:20.520Z,20.30
2023-03-16T09:13:53.672Z,20.31
2023-03-16T09:16:27.704Z,20.32
2023-03-16T09:19:01.588Z,20.33
2023-03-16T09:21:37.539Z,20.34
2023-03-16T09:24:10.504Z,20.34
2023-03-16T09:26:43.750Z,20.35
2023-03-16T09:29:17.502Z,20.36
2023-03-16T09:31:50.668Z,20.36
2023-03-16T09:36:56.581Z,20.36
2023-03-16T09:39:29.476Z,20.32
2023-03-16T09:42:02.252Z,20.28
2023-03-16T09:44:35.369Z,20.26
2023-03-16T09:47:11.494Z,20.25
2023-03-16T09:49:50.399Z,20.24
2023-03-16T09:52:23.263Z,20.24
2023-03-16T09:54:56.340Z,20.24
2023-03-16T09:57:29.684Z,20.25
2023-03-16T10:00:02.547Z,20.26
2023-03-16T10:02:35.284Z,20.27
2023-03-16T10:05:08.559Z,20.28
2023-03-16T10:07:41.408Z,20.30
2023-03-16T10:10:20.178Z,20.31
2023-03-16T10:12:53.401Z,20.32
2023-03-16T10:15:26.641Z,20.33
2023-03-16T10:17:59.435Z,20.34
2023-03-16T10:20:32.471Z,20.35
2023-03-16T10:23:05.300Z,20.35
2023-03-16T10:25:38.449Z,20.36
2023-03-16T10:28:11.329Z,20.37
2023-03-16T10:30:44.307Z,20.38
2023-03-16T10:33:17.361Z,20.38
2023-03-16T10:35:50.537Z,20.39
2023-03-16T10:38:23.301Z,20.39
2023-03-16T10:40:56.589Z,20.39
2023-03-16T10:43:29.426Z,20.39
2023-03-16T10:46:02.902Z,20.40
2023-03-16T10:48:35.584Z,20.40
2023-03-16T10:51:08.639Z,20.40
2023-03-16T10:53:41.661Z,20.40
2023-03-16T10:56:14.665Z,20.41
2023-03-16T10:58:47.615Z,20.41
2023-03-16T11:01:20.741Z,20.42
2023-03-16T11:03:59.586Z,20.42
2023-03-16T11:06:32.500Z,20.42
2023-03-16T11:09:05.647Z,20.43
2023-03-16T11:11:38.663Z,20.43
2023-03-16T11:14:11.653Z,20.44
2023-03-16T11:16:44.803Z,20.44
2023-03-16T11:19:17.368Z,20.45
2023-03-16T11:21:50.594Z,20.46
2023-03-16T11:24:23.647Z,20.46
2023-03-16T11:26:56.697Z,20.47
2023-03-16T11:29:29.704Z,20.48
2023-03-16T11:32:02.602Z,20.48
2023-03-16T11:34:35.513Z,20.49
2023-03-16T11:37:08.547Z,20.49
2023-03-16T11:39:41.538Z,20.50
2023-03-16T11:42:14.407Z,20.50
2023-03-16T11:44:50.109Z,20.51
2023-03-16T11:47:20.441Z,20.51
2023-03-16T11:49:53.547Z,20.52
2023-03-16T11:52:26.582Z,20.52
2023-03-16T11:54:59.761Z,20.52
2023-03-16T11:57:32.463Z,20.53
2023-03-16T12:00:05.462Z,20.53
2023-03-16T12:02:38.714Z,20.54
2023-03-16T12:05:11.458Z,20.55
2023-03-16T12:07:44.833Z,20.55
2023-03-16T12:10:17.454Z,20.56
2023-03-16T12:12:50.450Z,20.57
2023-03-16T12:15:23.453Z,20.57
2023-03-16T12:17:57.000Z,20.58
2023-03-16T12:20:30.624Z,20.59
2023-03-16T12:23:03.623Z,20.59
2023-03-16T12:25:36.714Z,20.60
2023-03-16T12:28:09.460Z,20.61
2023-03-16T12:30:42.588Z,20.62
2023-03-16T12:33:15.490Z,20.63
2023-03-16T12:35:48.760Z,20.64
2023-03-16T12:38:21.532Z,20.65
2023-03-16T12:40:54.614Z,20.66
2023-03-16T12:43:27.852Z,20.66
2023-03-16T12:46:00.869Z,20.63
2023-03-16T12:48:33.501Z,20.58
2023-03-16T12:51:06.525Z,20.51
2023-03-16T12:53:53.775Z,20.46
2023-03-16T12:56:26.758Z,20.43
2023-03-16T12:58:59.777Z,20.42
2023-03-16T13:01:32.963Z,20.42
2023-03-16T13:04:05.819Z,20.43
2023-03-16T13:06:38.808Z,20.45
2023-03-16T13:09:11.582Z,20.47
2023-03-16T13:11:44.756Z,20.50
2023-03-16T13:14:17.558Z,20.52
2023-03-16T13:16:50.793Z,20.55
2023-03-16T13:19:23.597Z,20.57
2023-03-16T13:21:56.689Z,20.60
2023-03-16T13:24:29.757Z,20.64
2023-03-16T13:27:08.482Z,20.67
2023-03-16T13:29:41.585Z,20.71
2023-03-16T13:32:14.654Z,20.74
2023-03-16T13:34:47.788Z,20.77
2023-03-16T13:37:24.392Z,20.79
2023-03-16T13:40:11.533Z,20.82
2023-03-16T13:42:45.787Z,20.84
2023-03-16T13:45:18.613Z,20.86
2023-03-16T13:47:51.883Z,20.87
2023-03-16T13:50:24.749Z,20.89
2023-03-16T13:52:57.746Z,20.91
2023-03-16T13:55:30.774Z,20.92
2023-03-16T13:58:03.884Z,20.93
2023-03-16T14:00:36.833Z,20.94
2023-03-16T14:03:09.609Z,20.95
2023-03-16T14:05:42.729Z,20.96
2023-03-16T14:08:15.607Z,20.97
2023-03-16T14:10:48.811Z,20.98
2023-03-16T14:13:21.605Z,20.98
2023-03-16T14:15:54.888Z,20.99
2023-03-16T14:18:27.751Z,21.00
2023-03-16T14:21:00.727Z,21.00
2023-03-16T14:23:33.852Z,21.00
2023-03-16T14:26:06.666Z,21.01
2023-03-16T14:28:39.664Z,21.01
2023-03-16T14:31:13.052Z,21.02
2023-03-16T14:33:45.841Z,21.02
2023-03-16T14:36:19.025Z,21.03
2023-03-16T14:38:51.974Z,21.03
2023-03-16T14:41:24.789Z,21.03
2023-03-16T14:43:57.879Z,21.04
2023-03-16T14:46:30.972Z,21.04
2023-03-16T14:49:03.828Z,21.04
2023-03-16T14:51:36.769Z,21.03
2023-03-16T14:54:09.693Z,21.03
2023-03-16T14:56:42.829Z,21.01
2023-03-16T14:59:15.697Z,21.00
2023-03-16T15:01:48.984Z,20.98
2023-03-16T15:04:21.714Z,20.96
2023-03-16T15:06:54.821Z,20.94
2023-03-16T15:09:27.820Z,20.92
2023-03-16T15:12:01.108Z,20.89
2023-03-16T15:14:33.986Z,20.87
2023-03-16T15:17:06.717Z,20.85
2023-03-16T15:19:39.949Z,20.82
2023-03-16T15:22:12.891Z,20.80
2023-03-16T15:24:45.768Z,20.78
2023-03-16T15:27:18.773Z,20.76
2023-03-16T15:29:51.746Z,20.74
2023-03-16T15:32:24.774Z,20.72
2023-03-16T15:34:57.804Z,20.70
2023-03-16T15:37:30.898Z,20.69
2023-03-16T15:40:03.909Z,20.68
2023-03-16T15:42:36.990Z,20.67
2023-03-16T15:45:09.793Z,20.66
2023-03-16T15:47:43.060Z,20.66
2023-03-16T15:50:15.813Z,20.66
2023-03-16T15:52:49.069Z,20.66
2023-03-16T15:55:21.911Z,20.66
2023-03-16T15:57:59.166Z,20.66
2023-03-16T16:00:31.948Z,20.67
2023-03-16T16:03:04.975Z,20.68
2023-03-16T16:05:38.243Z,20.68
2023-03-16T16:08:12.060Z,20.69
2023-03-16T16:10:45.138Z,20.70
2023-03-16T16:13:18.140Z,20.71
2023-03-16T16:15:51.817Z,20.71
2023-03-16T16:18:24.136Z,20.72
2023-03-16T16:20:57.179Z,20.73
2023-03-16T16:23:30.149Z,20.74
2023-03-16T16:26:03.159Z,20.75
2023-03-16T16:28:36.221Z,20.76
2023-03-16T16:31:09.061Z,20.77
2023-03-16T16:33:41.962Z,20.77
2023-03-16T16:36:15.167Z,20.78
2023-03-16T16:38:48.118Z,20.78
2023-03-16T16:41:20.828Z,20.78
2023-03-16T16:43:53.902Z,20.78
2023-03-16T16:46:27.232Z,20.78
2023-03-16T16:48:59.985Z,20.79
2023-03-16T16:51:33.156Z,20.79
2023-03-16T16:54:05.838Z,20.79
2023-03-16T16:56:38.958Z,20.79
2023-03-16T16:59:11.892Z,20.79
2023-03-16T17:01:44.863Z,20.79
2023-03-16T17:04:18.028Z,20.79
2023-03-16T17:06:51.092Z,20.79
2023-03-16T17:09:24.179Z,20.79
2023-03-16T17:11:57.025Z,20.79
2023-03-16T17:14:29.902Z,20.79
2023-03-16T17:17:03.089Z,20.79
2023-03-16T17:19:35.902Z,20.79
2023-03-16T17:22:08.886Z,20.78
2023-03-16T17:24:42.017Z,20.77
2023-03-16T17:27:14.934Z,20.77
2023-03-16T17:29:47.943Z,20.76
2023-03-16T17:32:20.980Z,20.75
2023-03-16T17:34:53.932Z,20.75
2023-03-16T17:37:27.057Z,20.74
2023-03-16T17:40:00.109Z,20.74
2023-03-16T17:42:33.199Z,20.74
2023-03-16T17:45:06.266Z,20.74
2023-03-16T17:47:39.071Z,20.74
2023-03-16T17:50:12.216Z,20.73
2023-03-16T17:52:45.242Z,20.73
2023-03-16T17:55:18.365Z,20.73
2023-03-16T17:57:51.275Z,20.73
2023-03-16T18:00:24.503Z,20.73
2023-03-16T18:02:58.226Z,20.73
2023-03-16T18:05:31.026Z,20.73
2023-03-16T18:08:09.878Z,20.73
2023-03-16T18:10:43.034Z,20.73
2023-03-16T18:13:16.302Z,20.73
2023-03-16T18:15:49.164Z,20.74
2023-03-16T18:18:22.119Z,20.74
2023-03-16T18:20:55.075Z,20.74
2023-03-16T18:23:28.063Z,20.73
2023-03-16T18:26:04.216Z,20.74
2023-03-16T18:28:36.973Z,20.74
2023-03-16T18:31:10.070Z,20.74
2023-03-16T18:33:43.115Z,20.74
2023-03-16T18:36:16.052Z,20.74
2023-03-16T18:38:49.034Z,20.74
2023-03-16T18:41:22.168Z,20.74
2023-03-16T18:43:55.081Z,20.74
2023-03-16T18:46:28.310Z,20.74
2023-03-16T18:49:01.189Z,20.74
2023-03-16T18:51:34.118Z,20.74
2023-03-16T18:54:07.277Z,20.74
2023-03-16T18:56:46.220Z,20.74
2023-03-16T18:59:19.358Z,20.74
2023-03-16T19:01:52.150Z,20.74
2023-03-16T19:04:25.164Z,20.74
2023-03-16T19:06:58.061Z,20.73
2023-03-16T19:09:31.450Z,20.73
2023-03-16T19:12:04.400Z,20.74
2023-03-16T19:14:37.183Z,20.74
2023-03-16T19:17:10.081Z,20.73
2023-03-16T19:19:43.164Z,20.74
2023-03-16T19:22:16.088Z,20.74
2023-03-16T19:24:49.634Z,20.74
2023-03-16T19:27:23.245Z,20.75
2023-03-16T19:29:56.058Z,20.75
2023-03-16T19:32:29.460Z,20.75
2023-03-16T19:35:02.183Z,20.75
2023-03-16T19:37:35.231Z,20.75
2023-03-16T19:40:08.357Z,20.75
2023-03-16T19:42:43.296Z,20.74
2023-03-16T19:45:16.117Z,20.74
2023-03-16T19:47:49.571Z,20.74
2023-03-16T19:50:22.364Z,20.74
2023-03-16T19:52:55.383Z,20.74
2023-03-16T19:55:28.945Z,20.73
2023-03-16T19:58:04.194Z,20.73
2023-03-16T20:00:37.387Z,20.73
2023-03-16T20:03:10.164Z,20.73
2023-03-16T20:05:43.250Z,20.73
2023-03-16T20:08:16.142Z,20.74
2023-03-16T20:10:49.381Z,20.73
2023-03-16T20:13:22.348Z,20.73
2023-03-16T20:15:55.243Z,20.72
2023-03-16T20:18:28.384Z,20.71
2023-03-16T20:21:01.186Z,20.70
2023-03-16T20:23:34.426Z,20.69
2023-03-16T20:26:07.378Z,20.68
2023-03-16T20:28:40.228Z,20.68
2023-03-16T20:31:13.245Z,20.67
2023-03-16T20:33:46.345Z,20.67
2023-03-16T20:36:19.178Z,20.67
2023-03-16T20:38:55.130Z,20.67
2023-03-16T20:41:34.259Z,20.67
2023-03-16T20:44:07.427Z,20.67
2023-03-16T20:46:40.440Z,20.68
2023-03-16T20:49:13.234Z,20.68
2023-03-16T20:51:46.438Z,20.69
2023-03-16T20:54:19.297Z,20.69
2023-03-16T20:56:52.288Z,20.69
2023-03-16T20:59:25.452Z,20.69
2023-03-16T21:01:58.200Z,20.69
2023-03-16T21:04:31.406Z,20.69
2023-03-16T21:07:04.225Z,20.70
2023-03-16T21:09:37.294Z,20.70
2023-03-16T21:12:10.302Z,20.70
2023-03-16T21:14:43.378Z,20.70
2023-03-16T21:17:16.264Z,20.70
2023-03-16T21:19:49.496Z,20.71
2023-03-16T21:22:26.317Z,20.71
2023-03-16T21:24:59.566Z,20.71
2023-03-16T21:27:32.396Z,20.71
2023-03-16T21:30:05.598Z,20.71
2023-03-16T21:32:38.303Z,20.71
2023-03-16T21:35:11.300Z,20.72
2023-03-16T21:37:44.589Z,20.72
2023-03-16T21:40:17.534Z,20.72
2023-03-16T21:42:50.615Z,20.72
2023-03-16T21:45:23.414Z,20.72
2023-03-16T21:47:56.366Z,20.72
2023-03-16T21:50:29.871Z,20.72
2023-03-16T21:53:02.476Z,20.72
2023-03-16T21:55:35.684Z,20.73
2023-03-16T21:58:08.326Z,20.72
2023-03-16T22:00:41.784Z,20.72
2023-03-16T22:03:15.656Z,20.72
2023-03-16T22:05:48.685Z,20.73
2023-03-16T22:08:21.646Z,20.73
2023-03-16T22:10:54.795Z,20.72
2023-03-16T22:13:28.607Z,20.72
2023-03-16T22:16:01.658Z,20.71
2023-03-16T22:18:34.431Z,20.71
2023-03-16T22:21:07.700Z,20.70
2023-03-16T22:23:40.692Z,20.69
2023-03-16T22:26:13.580Z,20.69
2023-03-16T22:28:46.636Z,20.68
2023-03-16T22:31:19.751Z,20.67
2023-03-16T22:33:52.753Z,20.66
2023-03-16T22:36:25.692Z,20.65
2023-03-16T22:38:58.717Z,20.64
2023-03-16T22:41:31.848Z,20.63
2023-03-16T22:44:05.690Z,20.62
2023-03-16T22:46:38.489Z,20.61
2023-03-16T22:49:11.659Z,20.60
2023-03-16T22:51:44.861Z,20.59
2023-03-16T22:54:18.876Z,20.58
2023-03-16T22:56:52.730Z,20.57
2023-03-16T22:59:25.456Z,20.57
2023-03-16T23:01:58.782Z,20.56
2023-03-16T23:04:31.944Z,20.55
2023-03-16T23:07:05.858Z,20.54
2023-03-16T23:09:38.416Z,20.53
2023-03-16T23:12:11.664Z,20.52
2023-03-16T23:14:44.691Z,20.52
2023-03-16T23:17:17.724Z,20.51
2023-03-16T23:19:50.722Z,20.50
2023-03-16T23:22:23.691Z,20.49
2023-03-16T23:24:56.511Z,20.48
2023-03-16T23:27:29.637Z,20.48
2023-03-16T23:30:02.807Z,20.47
2023-03-16T23:32:35.980Z,20.46
2023-03-16T23:35:09.814Z,20.45
2023-03-16T23:37:42.871Z,20.45
2023-03-16T23:40:15.451Z,20.44
2023-03-16T23:43:02.728Z,20.43
2023-03-16T23:45:35.591Z,20.43
2023-03-16T23:48:08.812Z,20.42
2023-03-16T23:50:41.576Z,20.41
2023-03-16T23:53:14.501Z,20.40
2023-03-16T23:55:47.573Z,20.40
2023-03-16T23:58:20.608Z,20.38
